Time;durP1;ratioP1;P1;durP2;ratioP2;P2;SDS_P1;SDS_P2;PMS_P1;PMS_P2;Temp;Humidity;BMP_temperature;BMP_pressure;BME280_temperature;BME280_humidity;BME280_pressure;Samples;Min_cycle;Max_cycle;Signal;HPM_P1;HPM_P2
2023/04/15 00:00:18;;;;;;;11.77;7.18;;;10.60;75.90;;;;;;5027949;28;20092;-78
2023/04/15 00:02:44;;;;;;;10.93;7.95;;;10.50;76.10;;;;;;5017773;28;20025;-78
2023/04/15 00:05:10;;;;;;;9.68;7.07;;;10.60;76.60;;;;;;5025328;28;20368;-78
2023/04/15 00:07:35;;;;;;;9.05;7.30;;;10.60;76.90;;;;;;5025593;28;20337;-77
2023/04/15 00:10:03;;;;;;;10.52;7.57;;;10.60;76.70;;;;;;5022902;28;20117;-77
2023/04/15 00:12:28;;;;;;;11.23;8.00;;;10.60;77.00;;;;;;5026985;28;20121;-77
2023/04/15 00:14:55;;;;;;;9.82;7.63;;;10.60;77.20;;;;;;5028482;28;20104;-78
2023/04/15 00:17:22;;;;;;;10.88;7.60;;;10.60;77.30;;;;;;5024782;28;20561;-77
2023/04/15 00:19:47;;;;;;;10.73;7.30;;;10.60;77.60;;;;;;5023651;28;20412;-78
2023/04/15 00:22:13;;;;;;;11.68;7.32;;;10.50;77.20;;;;;;5023453;28;20099;-78
2023/04/15 00:24:39;;;;;;;10.48;7.45;;;10.40;77.60;;;;;;5032230;28;20032;-79
2023/04/15 00:27:05;;;;;;;9.65;7.95;;;10.20;78.50;;;;;;5030428;28;20366;-79
2023/04/15 00:29:31;;;;;;;11.18;7.28;;;10.20;78.70;;;;;;5026662;28;20036;-77
2023/04/15 00:31:57;;;;;;;11.15;8.05;;;10.20;78.80;;;;;;5024506;28;20489;-77
2023/04/15 00:34:23;;;;;;;10.70;7.68;;;10.20;79.10;;;;;;5022488;28;20032;-77
2023/04/15 00:36:51;;;;;;;9.73;7.70;;;10.20;79.50;;;;;;5031865;28;20029;-80
2023/04/15 00:39:17;;;;;;;11.45;7.65;;;10.10;80.20;;;;;;5029596;28;20028;-78
2023/04/15 00:41:44;;;;;;;9.65;7.88;;;10.10;80.90;;;;;;5028655;28;20025;-78
2023/04/15 00:44:10;;;;;;;10.23;7.45;;;10.10;81.10;;;;;;5025894;28;20460;-78
2023/04/15 00:46:37;;;;;;;10.90;7.53;;;10.10;81.30;;;;;;5049487;28;20090;-80
2023/04/15 00:49:04;;;;;;;9.55;7.72;;;10.20;81.20;;;;;;5045461;28;20028;-78
2023/04/15 00:51:32;;;;;;;9.65;7.68;;;10.20;81.30;;;;;;5031361;28;20037;-79
2023/04/15 00:53:59;;;;;;;9.55;7.45;;;10.20;81.20;;;;;;5019107;28;20032;-78
2023/04/15 00:56:27;;;;;;;8.55;6.57;;;10.20;81.10;;;;;;5028919;28;20057;-78
2023/04/15 00:58:53;;;;;;;10.50;7.70;;;10.20;81.00;;;;;;5025810;28;20483;-79
2023/04/15 01:01:21;;;;;;;10.52;7.38;;;10.10;81.00;;;;;;5020397;28;20117;-78
2023/04/15 01:03:49;;;;;;;9.27;6.60;;;10.10;81.10;;;;;;5017864;28;20021;-79
2023/04/15 01:06:15;;;;;;;11.20;7.00;;;10.10;81.30;;;;;;5025825;28;20033;-78
2023/04/15 01:08:41;;;;;;;8.93;6.70;;;10.10;81.40;;;;;;5021490;28;20400;-78
2023/04/15 01:11:08;;;;;;;10.40;7.15;;;10.20;81.30;;;;;;5023670;28;20040;-78
2023/04/15 01:13:35;;;;;;;9.10;7.22;;;10.30;81.40;;;;;;5029039;28;20280;-78
2023/04/15 01:16:01;;;;;;;9.95;7.28;;;10.30;81.50;;;;;;5026091;28;20096;-78
2023/04/15 01:18:28;;;;;;;9.48;7.13;;;10.40;81.40;;;;;;5023715;28;20034;-80
2023/04/15 01:20:54;;;;;;;10.00;7.20;;;10.30;81.10;;;;;;5030429;28;20025;-81
2023/04/15 01:23:23;;;;;;;8.75;6.95;;;10.20;80.90;;;;;;5026875;28;20359;-78
2023/04/15 01:25:50;;;;;;;9.63;6.95;;;10.10;80.70;;;;;;5030058;28;20509;-78
2023/04/15 01:28:16;;;;;;;8.98;7.07;;;10.10;81.00;;;;;;5022026;28;20113;-79
2023/04/15 01:30:42;;;;;;;12.07;7.50;;;10.00;81.00;;;;;;5028876;28;20105;-78
2023/04/15 01:33:08;;;;;;;11.18;7.22;;;10.00;81.20;;;;;;5025688;28;20109;-78
2023/04/15 01:35:34;;;;;;;9.20;7.07;;;10.00;81.40;;;;;;5031137;28;20093;-79
2023/04/15 01:38:06;;;;;;;9.27;6.97;;;9.90;81.30;;;;;;5029017;28;20037;-79
2023/04/15 01:40:32;;;;;;;9.30;7.05;;;9.90;81.40;;;;;;5037643;28;20025;-78
2023/04/15 01:42:58;;;;;;;10.20;6.80;;;9.90;81.60;;;;;;5031396;28;20029;-79
2023/04/15 01:45:24;;;;;;;8.82;6.85;;;9.90;81.90;;;;;;5031061;28;20041;-80
2023/04/15 01:47:50;;;;;;;10.77;7.65;;;9.90;81.90;;;;;;5035157;28;20094;-78
2023/04/15 01:50:16;;;;;;;10.65;7.85;;;9.90;82.30;;;;;;5025560;28;20128;-78
2023/04/15 01:52:42;;;;;;;11.02;7.90;;;9.90;82.40;;;;;;5028921;28;20026;-78
2023/04/15 01:55:08;;;;;;;10.30;7.93;;;9.80;82.60;;;;;;5032792;28;20033;-79
2023/04/15 01:57:34;;;;;;;10.48;7.47;;;9.80;82.90;;;;;;5027848;28;20041;-79
2023/04/15 02:00:00;;;;;;;12.05;8.05;;;9.80;83.10;;;;;;5034532;28;20135;-79
2023/04/15 02:02:26;;;;;;;12.18;8.30;;;9.70;83.40;;;;;;5024271;28;20048;-79
2023/04/15 02:04:52;;;;;;;10.13;7.45;;;9.70;83.60;;;;;;5031415;28;20022;-79
2023/04/15 02:07:18;;;;;;;9.40;7.72;;;9.60;83.90;;;;;;5026333;28;20401;-78
2023/04/15 02:09:45;;;;;;;11.05;7.45;;;9.60;83.90;;;;;;5026757;28;20018;-78
2023/04/15 02:12:11;;;;;;;10.80;8.10;;;9.60;84.30;;;;;;5024085;28;20478;-78
2023/04/15 02:14:37;;;;;;;12.18;8.27;;;9.60;84.50;;;;;;5037795;28;20018;-78
2023/04/15 02:17:06;;;;;;;10.80;7.95;;;9.50;84.70;;;;;;5040234;28;20445;-79
2023/04/15 02:19:32;;;;;;;12.10;8.27;;;9.50;84.90;;;;;;5034446;28;20092;-78
2023/04/15 02:22:00;;;;;;;10.10;8.38;;;9.60;85.10;;;;;;5029314;28;20099;-79
2023/04/15 02:24:26;;;;;;;12.43;8.88;;;9.60;85.20;;;;;;5027898;28;20056;-79
2023/04/15 02:26:52;;;;;;;9.82;8.13;;;9.50;85.30;;;;;;5028709;28;20072;-79
2023/04/15 02:29:17;;;;;;;9.90;7.80;;;9.40;85.40;;;;;;5032576;28;20048;-79
2023/04/15 02:31:44;;;;;;;12.38;8.90;;;9.30;85.80;;;;;;5027974;28;20472;-78
2023/04/15 02:34:10;;;;;;;12.48;9.15;;;9.40;86.20;;;;;;5028952;28;20014;-78
2023/04/15 02:36:36;;;;;;;12.45;9.52;;;9.40;86.20;;;;;;5027899;28;20415;-78
2023/04/15 02:39:03;;;;;;;12.43;9.65;;;9.40;86.50;;;;;;5029572;28;20033;-78
2023/04/15 02:41:29;;;;;;;11.70;9.77;;;9.40;86.60;;;;;;5035975;28;20374;-78
2023/04/15 02:43:55;;;;;;;12.15;9.70;;;9.30;86.60;;;;;;5036001;28;20025;-79
2023/04/15 02:46:21;;;;;;;14.98;10.98;;;9.30;86.80;;;;;;5026180;28;20033;-79
2023/04/15 02:48:52;;;;;;;12.05;9.93;;;9.40;86.90;;;;;;5028947;28;20036;-79
2023/04/15 02:51:19;;;;;;;12.52;9.88;;;9.40;87.10;;;;;;5023280;28;20482;-78
2023/04/15 02:53:46;;;;;;;12.45;10.43;;;9.40;87.10;;;;;;5029061;28;20014;-78
2023/04/15 02:56:14;;;;;;;12.30;10.27;;;9.30;87.10;;;;;;5021960;28;20034;-78
2023/04/15 02:58:40;;;;;;;11.40;10.20;;;9.30;87.40;;;;;;5017901;28;20049;-79
2023/04/15 03:01:07;;;;;;;12.32;10.32;;;9.40;87.50;;;;;;5028606;28;20029;-78
2023/04/15 03:03:33;;;;;;;12.30;10.18;;;9.30;87.50;;;;;;5032635;28;20489;-78
2023/04/15 03:05:59;;;;;;;12.20;9.95;;;9.30;87.60;;;;;;5030888;28;20033;-80
2023/04/15 03:08:25;;;;;;;12.35;10.30;;;9.30;87.50;;;;;;5030929;28;20079;-78
2023/04/15 03:10:52;;;;;;;11.30;9.57;;;9.30;87.50;;;;;;5034658;28;20025;-78
2023/04/15 03:13:19;;;;;;;12.27;9.82;;;9.30;87.50;;;;;;5033147;28;20121;-79
2023/04/15 03:15:48;;;;;;;11.93;9.32;;;9.30;87.60;;;;;;5032377;28;20017;-78
2023/04/15 03:18:13;;;;;;;13.88;10.45;;;9.40;87.60;;;;;;5025563;28;20025;-78
2023/04/15 03:20:39;;;;;;;14.10;10.80;;;9.30;87.50;;;;;;5029950;28;20462;-78
2023/04/15 03:23:05;;;;;;;13.93;11.25;;;9.30;87.60;;;;;;5027446;28;20021;-78
2023/04/15 03:25:31;;;;;;;14.82;11.18;;;9.30;87.70;;;;;;5030267;28;20104;-78
2023/04/15 03:27:57;;;;;;;13.63;11.68;;;9.30;87.80;;;;;;5027862;28;20045;-78
2023/04/15 03:30:23;;;;;;;14.30;11.73;;;9.30;87.90;;;;;;5030196;28;20477;-79
2023/04/15 03:32:48;;;;;;;14.75;11.90;;;9.30;88.00;;;;;;5020597;28;20022;-77
2023/04/15 03:35:14;;;;;;;15.45;12.18;;;9.30;88.00;;;;;;5038815;28;20438;-78
2023/04/15 03:37:40;;;;;;;16.15;13.88;;;9.30;88.00;;;;;;5030954;28;20082;-78
2023/04/15 03:40:06;;;;;;;17.58;14.57;;;9.30;88.00;;;;;;5030841;28;20370;-78
2023/04/15 03:42:32;;;;;;;17.75;15.55;;;9.30;88.20;;;;;;5032757;28;20036;-79
2023/04/15 03:44:59;;;;;;;18.52;16.00;;;9.30;88.30;;;;;;5026264;28;20025;-79
2023/04/15 03:47:25;;;;;;;18.15;15.63;;;9.30;88.30;;;;;;5029493;28;20036;-80
2023/04/15 03:49:51;;;;;;;18.20;14.77;;;9.30;88.40;;;;;;5029553;28;20033;-79
2023/04/15 03:52:16;;;;;;;20.48;15.68;;;9.30;88.50;;;;;;5029696;28;20492;-78
2023/04/15 03:54:42;;;;;;;16.10;14.38;;;9.30;88.50;;;;;;5025771;28;20113;-79
2023/04/15 03:57:08;;;;;;;21.08;16.30;;;9.30;88.50;;;;;;5026937;28;20034;-79
2023/04/15 03:59:34;;;;;;;20.67;16.13;;;9.20;88.50;;;;;;5028170;28;20095;-78
2023/04/15 04:02:00;;;;;;;19.63;15.70;;;9.30;88.70;;;;;;5023515;28;20037;-78
2023/04/15 04:04:25;;;;;;;20.58;16.15;;;9.40;88.70;;;;;;5036493;28;20031;-79
2023/04/15 04:06:51;;;;;;;20.13;16.27;;;9.30;88.60;;;;;;5033366;28;20033;-80
2023/04/15 04:09:17;;;;;;;19.80;14.98;;;9.30;88.70;;;;;;5030306;28;20072;-81
2023/04/15 04:11:44;;;;;;;18.42;14.55;;;9.30;88.80;;;;;;5029043;28;20099;-79
2023/04/15 04:14:10;;;;;;;17.90;15.63;;;9.40;88.70;;;;;;5029647;28;20025;-79
2023/04/15 04:16:36;;;;;;;18.73;15.95;;;9.40;88.70;;;;;;5019430;28;20470;-80
2023/04/15 04:19:01;;;;;;;18.90;16.23;;;9.40;88.60;;;;;;5054467;28;20025;-81
2023/04/15 04:21:27;;;;;;;22.63;17.45;;;9.40;88.60;;;;;;5050970;28;20025;-82
2023/04/15 04:23:53;;;;;;;20.73;16.25;;;9.40;88.70;;;;;;5026755;28;20549;-78
2023/04/15 04:26:18;;;;;;;20.45;16.52;;;9.30;88.70;;;;;;5029556;28;20139;-79
2023/04/15 04:28:44;;;;;;;21.77;16.90;;;9.40;88.90;;;;;;5030417;28;20029;-79
2023/04/15 04:31:10;;;;;;;22.23;17.70;;;9.40;88.80;;;;;;5016589;28;20030;-79
2023/04/15 04:33:36;;;;;;;25.27;18.55;;;9.40;88.90;;;;;;5025399;28;20025;-79
2023/04/15 04:36:02;;;;;;;21.48;17.83;;;9.40;89.00;;;;;;5018194;28;21347;-80
2023/04/15 04:38:27;;;;;;;21.90;18.52;;;9.40;89.10;;;;;;5028261;28;20038;-79
2023/04/15 04:40:53;;;;;;;23.27;18.40;;;9.40;89.30;;;;;;5029431;28;20036;-79
2023/04/15 04:43:19;;;;;;;24.90;18.85;;;9.30;89.30;;;;;;5036151;28;20116;-79
2023/04/15 04:45:45;;;;;;;21.67;17.55;;;9.30;89.30;;;;;;5023616;28;20453;-79
2023/04/15 04:48:11;;;;;;;22.13;17.98;;;9.30;89.40;;;;;;5037019;28;20143;-78
2023/04/15 04:50:36;;;;;;;23.20;18.75;;;9.30;89.60;;;;;;5035101;28;20085;-78
2023/04/15 04:53:02;;;;;;;22.48;18.30;;;9.40;89.60;;;;;;5023578;28;20056;-78
2023/04/15 04:55:28;;;;;;;22.23;17.65;;;9.40;89.80;;;;;;5036894;28;20024;-79
2023/04/15 04:57:54;;;;;;;26.08;19.60;;;9.40;90.00;;;;;;5026297;28;20304;-79
2023/04/15 05:00:20;;;;;;;24.33;19.55;;;9.30;89.90;;;;;;5033298;28;20052;-78
2023/04/15 05:02:46;;;;;;;24.00;19.60;;;9.30;90.10;;;;;;5038748;28;20285;-80
2023/04/15 05:05:12;;;;;;;23.92;19.77;;;9.30;90.10;;;;;;5059572;28;20021;-81
2023/04/15 05:07:38;;;;;;;28.55;20.60;;;9.30;90.20;;;;;;5049063;28;20041;-78
2023/04/15 05:10:05;;;;;;;27.35;21.67;;;9.20;90.10;;;;;;5027775;28;20489;-80
2023/04/15 05:12:31;;;;;;;27.52;21.85;;;9.20;90.30;;;;;;5024595;28;20034;-80
2023/04/15 05:14:57;;;;;;;28.40;22.30;;;9.30;90.50;;;;;;5034411;28;20067;-79
2023/04/15 05:17:22;;;;;;;27.08;23.30;;;9.30;90.40;;;;;;5028960;28;20652;-79
2023/04/15 05:19:48;;;;;;;27.00;22.33;;;9.30;90.40;;;;;;5029793;28;20567;-78
2023/04/15 05:22:14;;;;;;;30.77;23.80;;;9.20;90.30;;;;;;5030649;28;20033;-79
2023/04/15 05:24:40;;;;;;;27.13;23.17;;;9.30;90.40;;;;;;5032212;28;20523;-78
2023/04/15 05:27:07;;;;;;;28.42;20.17;;;9.30;90.40;;;;;;5025623;28;20528;-78
2023/04/15 05:29:33;;;;;;;29.45;21.65;;;9.30;90.30;;;;;;5029705;28;20033;-78
2023/04/15 05:31:59;;;;;;;29.65;22.27;;;9.20;90.30;;;;;;5029780;28;20037;-78
2023/04/15 05:34:24;;;;;;;25.92;20.58;;;9.30;90.20;;;;;;5026931;28;20033;-79
2023/04/15 05:36:51;;;;;;;25.10;20.80;;;9.30;90.10;;;;;;5037336;28;20105;-79
2023/04/15 05:39:17;;;;;;;27.35;19.67;;;9.20;90.00;;;;;;5024158;28;20026;-78
2023/04/15 05:41:43;;;;;;;25.13;18.73;;;9.30;89.80;;;;;;5027078;28;20096;-78
2023/04/15 05:44:08;;;;;;;22.58;18.55;;;9.30;89.80;;;;;;5024879;28;20113;-79
2023/04/15 05:46:34;;;;;;;22.88;17.20;;;9.30;89.40;;;;;;5027761;28;20045;-78
2023/04/15 05:49:00;;;;;;;23.30;18.00;;;9.30;89.30;;;;;;5020107;28;20424;-80
2023/04/15 05:51:26;;;;;;;21.80;17.40;;;9.30;89.20;;;;;;5013893;28;20029;-80
2023/04/15 05:53:51;;;;;;;21.90;16.00;;;9.30;89.10;;;;;;5021611;28;20148;-80
2023/04/15 05:56:19;;;;;;;21.02;16.55;;;9.40;89.00;;;;;;5020122;28;20067;-78
2023/04/15 05:58:45;;;;;;;26.55;18.13;;;9.40;89.00;;;;;;5019049;28;20041;-78
2023/04/15 06:01:11;;;;;;;20.45;16.98;;;9.40;88.60;;;;;;5018768;28;20045;-78
2023/04/15 06:03:37;;;;;;;22.70;17.77;;;9.40;88.70;;;;;;5014830;28;20032;-80
2023/04/15 06:06:03;;;;;;;24.48;17.77;;;9.50;88.70;;;;;;5020597;28;20374;-79
2023/04/15 06:08:29;;;;;;;23.85;18.05;;;9.50;88.60;;;;;;5019577;28;20021;-78
2023/04/15 06:10:55;;;;;;;23.88;17.88;;;9.50;88.60;;;;;;5017249;28;20017;-81
2023/04/15 06:13:20;;;;;;;25.33;18.45;;;9.50;88.70;;;;;;5019138;28;20026;-78
2023/04/15 06:15:46;;;;;;;24.08;19.08;;;9.50;88.50;;;;;;5017150;28;20022;-78
2023/04/15 06:18:12;;;;;;;25.30;19.45;;;9.50;88.50;;;;;;5019858;28;20036;-79
2023/04/15 06:20:37;;;;;;;27.25;20.85;;;9.40;88.70;;;;;;5015093;28;20060;-78
2023/04/15 06:23:03;;;;;;;22.55;18.77;;;9.50;88.80;;;;;;5015785;28;20032;-80
2023/04/15 06:25:29;;;;;;;24.33;18.42;;;9.50;88.90;;;;;;5017697;28;20028;-79
2023/04/15 06:27:55;;;;;;;24.38;18.95;;;9.40;88.70;;;;;;5015141;28;20038;-78
2023/04/15 06:30:20;;;;;;;22.95;18.08;;;9.40;88.80;;;;;;5020748;28;20110;-79
2023/04/15 06:32:46;;;;;;;23.70;17.63;;;9.50;88.80;;;;;;5015563;28;20038;-79
2023/04/15 06:35:11;;;;;;;24.50;18.33;;;9.50;88.90;;;;;;5016987;28;20108;-79
2023/04/15 06:37:37;;;;;;;21.15;17.30;;;9.50;88.70;;;;;;5017160;28;20156;-80
2023/04/15 06:40:04;;;;;;;24.20;18.10;;;9.50;88.70;;;;;;5016517;28;20493;-78
2023/04/15 06:42:30;;;;;;;22.80;18.20;;;9.60;88.70;;;;;;5017384;28;20108;-79
2023/04/15 06:44:56;;;;;;;22.25;17.63;;;9.60;88.60;;;;;;5026078;28;20470;-78
2023/04/15 06:47:21;;;;;;;21.98;17.67;;;9.70;88.60;;;;;;5024944;28;20042;-78
2023/04/15 06:49:47;;;;;;;23.88;17.00;;;9.70;88.40;;;;;;5022824;28;20053;-80
2023/04/15 06:52:13;;;;;;;19.92;16.38;;;9.80;88.20;;;;;;5025783;28;20025;-78
2023/04/15 06:54:39;;;;;;;19.65;16.00;;;9.90;88.30;;;;;;5023090;28;20033;-79
2023/04/15 06:57:06;;;;;;;22.90;17.55;;;10.00;87.90;;;;;;5023624;28;20038;-78
2023/04/15 06:59:31;;;;;;;21.65;15.98;;;10.00;87.70;;;;;;5026500;28;20053;-78
2023/04/15 07:01:57;;;;;;;22.75;18.25;;;10.10;87.70;;;;;;5028748;28;20071;-78
2023/04/15 07:04:23;;;;;;;30.25;23.45;;;10.10;87.70;;;;;;5034053;28;20028;-78
2023/04/15 07:06:49;;;;;;;27.83;21.73;;;10.10;87.70;;;;;;5027416;28;20042;-78
2023/04/15 07:09:14;;;;;;;23.05;18.42;;;10.20;87.60;;;;;;5022248;28;20022;-78
2023/04/15 07:11:40;;;;;;;22.92;16.38;;;10.20;87.50;;;;;;5023763;28;20117;-79
2023/04/15 07:14:06;;;;;;;20.60;16.23;;;10.30;87.40;;;;;;5031536;28;20031;-78
2023/04/15 07:16:31;;;;;;;23.90;16.35;;;10.30;87.00;;;;;;5014117;28;20061;-81
2023/04/15 07:18:57;;;;;;;22.45;17.10;;;10.40;86.80;;;;;;5030129;28;20065;-80
2023/04/15 07:21:24;;;;;;;24.30;17.60;;;10.40;87.00;;;;;;5027263;28;20095;-78
2023/04/15 07:23:50;;;;;;;22.80;16.90;;;10.40;86.80;;;;;;5023811;28;20021;-78
2023/04/15 07:26:16;;;;;;;23.65;17.90;;;10.50;86.90;;;;;;5023753;28;20153;-78
2023/04/15 07:28:42;;;;;;;26.55;17.92;;;10.50;86.90;;;;;;5024686;28;20116;-78
2023/04/15 07:31:08;;;;;;;22.88;17.70;;;10.50;86.60;;;;;;5019823;28;20112;-78
2023/04/15 07:33:33;;;;;;;23.10;18.02;;;10.40;86.50;;;;;;5028078;28;20088;-79
2023/04/15 07:35:59;;;;;;;24.48;17.63;;;10.40;86.70;;;;;;5024661;28;20036;-78
2023/04/15 07:38:25;;;;;;;25.00;16.23;;;10.50;86.60;;;;;;5026495;28;20037;-78
2023/04/15 07:40:51;;;;;;;20.60;15.90;;;10.60;86.40;;;;;;5026232;28;20029;-78
2023/04/15 07:43:17;;;;;;;21.15;16.50;;;10.60;86.30;;;;;;5025483;28;20344;-78
2023/04/15 07:45:43;;;;;;;19.45;16.58;;;10.60;86.30;;;;;;5025076;28;20027;-78
2023/04/15 07:48:09;;;;;;;21.75;16.70;;;10.60;86.10;;;;;;5026253;28;20025;-78
2023/04/15 07:50:34;;;;;;;23.30;17.38;;;10.70;86.20;;;;;;5036177;28;20469;-79
2023/04/15 07:53:00;;;;;;;21.10;16.75;;;10.60;86.10;;;;;;5022615;28;20473;-81
2023/04/15 07:55:26;;;;;;;24.00;16.88;;;10.70;86.30;;;;;;5020303;28;20049;-78
2023/04/15 07:57:51;;;;;;;21.48;17.05;;;10.90;86.20;;;;;;5015745;28;20041;-77
2023/04/15 08:00:17;;;;;;;26.67;17.85;;;10.90;86.00;;;;;;5019067;28;20154;-76
2023/04/15 08:02:43;;;;;;;24.38;17.70;;;11.10;85.70;;;;;;5018862;28;20478;-75
2023/04/15 08:05:09;;;;;;;22.23;17.25;;;11.10;85.70;;;;;;5017284;28;20029;-75
2023/04/15 08:07:38;;;;;;;25.25;18.95;;;11.10;85.40;;;;;;5017313;28;20026;-76
2023/04/15 08:10:04;;;;;;;22.73;16.40;;;11.30;85.50;;;;;;5013661;28;20374;-75
2023/04/15 08:12:30;;;;;;;22.92;16.70;;;11.40;84.60;;;;;;5018885;28;20038;-78
2023/04/15 08:14:56;;;;;;;21.60;17.85;;;11.50;84.00;;;;;;5019370;28;20021;-80
2023/04/15 08:17:22;;;;;;;21.25;16.05;;;11.60;83.20;;;;;;5025866;28;20481;-77
2023/04/15 08:19:48;;;;;;;21.70;15.35;;;11.70;82.00;;;;;;5026532;28;20484;-78
2023/04/15 08:22:14;;;;;;;18.50;15.00;;;11.70;82.20;;;;;;5022729;28;20061;-77
2023/04/15 08:24:40;;;;;;;21.00;14.75;;;11.70;80.70;;;;;;5026501;28;20021;-77
2023/04/15 08:27:06;;;;;;;19.85;14.80;;;11.70;79.30;;;;;;5014717;28;20056;-77
2023/04/15 08:29:33;;;;;;;17.95;14.85;;;11.80;77.70;;;;;;5019062;28;20101;-77
2023/04/15 08:32:03;;;;;;;23.27;15.73;;;11.70;74.90;;;;;;5022166;28;20049;-76
2023/04/15 08:34:29;;;;;;;21.40;16.25;;;11.60;74.50;;;;;;5020097;28;20025;-77
2023/04/15 08:36:55;;;;;;;20.52;15.63;;;11.80;75.30;;;;;;5020736;28;20526;-77
2023/04/15 08:39:21;;;;;;;22.58;17.13;;;12.10;74.40;;;;;;5025224;28;20126;-77
2023/04/15 08:42:02;;;;;;;22.20;15.95;;;12.10;74.10;;;;;;5026598;28;20116;-79
2023/04/15 08:44:33;;;;;;;18.80;14.77;;;12.40;74.20;;;;;;5032517;28;20040;-79
2023/04/15 08:47:06;;;;;;;20.35;16.02;;;12.40;72.50;;;;;;5021681;28;20025;-78
2023/04/15 08:49:34;;;;;;;19.77;14.88;;;12.50;73.30;;;;;;5026709;28;20564;-78
2023/04/15 08:52:01;;;;;;;19.70;15.70;;;12.60;73.40;;;;;;5030619;28;20456;-79
2023/04/15 08:54:27;;;;;;;18.60;14.23;;;12.70;72.10;;;;;;5027638;28;20053;-78
2023/04/15 08:56:53;;;;;;;19.88;14.82;;;12.70;70.60;;;;;;5022211;28;20096;-77
2023/04/15 08:59:21;;;;;;;18.90;14.80;;;13.10;72.40;;;;;;5026436;28;20053;-77
2023/04/15 09:01:48;;;;;;;21.13;15.88;;;13.30;71.30;;;;;;5031115;28;20033;-77
2023/04/15 09:04:15;;;;;;;18.52;14.63;;;13.50;70.40;;;;;;5017703;28;20113;-77
2023/04/15 09:06:42;;;;;;;20.75;14.45;;;13.50;70.20;;;;;;5031238;28;20085;-78
2023/04/15 09:09:08;;;;;;;18.45;14.23;;;13.60;70.00;;;;;;5023834;28;20044;-76
2023/04/15 09:11:35;;;;;;;18.30;14.65;;;13.70;70.90;;;;;;5023300;28;20037;-75
2023/04/15 09:14:01;;;;;;;16.23;13.20;;;13.90;68.60;;;;;;5026002;28;20037;-78
2023/04/15 09:16:27;;;;;;;17.63;12.52;;;13.70;67.10;;;;;;5027609;28;20037;-76
2023/04/15 09:18:53;;;;;;;19.45;13.68;;;13.70;66.20;;;;;;5029320;28;20091;-79
2023/04/15 09:21:19;;;;;;;18.20;13.32;;;13.70;67.10;;;;;;5023091;28;20446;-77
2023/04/15 09:23:56;;;;;;;19.35;13.43;;;13.70;67.10;;;;;;5031627;28;20032;-77
2023/04/15 09:26:32;;;;;;;16.48;13.43;;;13.70;66.70;;;;;;5020800;28;20045;-76
2023/04/15 09:29:09;;;;;;;16.73;13.32;;;13.70;67.20;;;;;;5030878;28;20041;-79
2023/04/15 09:31:36;;;;;;;20.00;14.05;;;13.80;66.90;;;;;;5017976;28;20026;-76
2023/04/15 09:34:02;;;;;;;18.95;14.70;;;13.90;67.90;;;;;;5032834;28;20095;-75
2023/04/15 09:36:29;;;;;;;18.48;15.18;;;14.00;68.00;;;;;;5030603;28;20486;-77
2023/04/15 09:38:59;;;;;;;19.35;14.77;;;14.10;66.30;;;;;;5028017;28;20017;-78
2023/04/15 09:41:25;;;;;;;19.48;14.98;;;14.10;66.10;;;;;;5032206;28;20438;-77
2023/04/15 09:43:52;;;;;;;17.52;14.73;;;14.30;67.20;;;;;;5039136;28;20072;-77
2023/04/15 09:46:18;;;;;;;20.20;14.98;;;14.10;66.20;;;;;;5026940;28;20038;-77
2023/04/15 09:48:44;;;;;;;20.67;15.23;;;14.00;65.40;;;;;;5032333;28;20030;-77
2023/04/15 09:51:10;;;;;;;23.27;15.52;;;14.10;65.80;;;;;;5024051;28;20038;-77
2023/04/15 09:53:37;;;;;;;21.45;14.80;;;14.10;66.10;;;;;;5025205;28;20099;-77
2023/04/15 09:56:03;;;;;;;20.00;14.57;;;14.40;64.40;;;;;;5026249;28;20095;-78
2023/04/15 09:58:30;;;;;;;19.98;14.98;;;14.40;64.00;;;;;;5024117;28;20067;-77
2023/04/15 10:00:57;;;;;;;23.95;15.90;;;14.20;63.40;;;;;;5027215;28;20048;-77
2023/04/15 10:03:28;;;;;;;23.02;17.33;;;14.20;64.90;;;;;;5026494;28;20557;-77
2023/04/15 10:05:56;;;;;;;24.90;17.63;;;14.20;64.10;;;;;;5021384;28;20561;-77
2023/04/15 10:08:25;;;;;;;23.73;17.67;;;14.30;65.10;;;;;;5021968;28;20083;-78
2023/04/15 10:10:51;;;;;;;24.60;16.92;;;14.20;64.60;;;;;;5021088;28;20037;-78
2023/04/15 10:13:23;;;;;;;25.80;18.73;;;14.20;65.40;;;;;;5025306;28;20029;-77
2023/04/15 10:15:57;;;;;;;26.55;18.73;;;14.40;65.30;;;;;;5018558;28;20041;-76
2023/04/15 10:18:25;;;;;;;26.60;18.20;;;14.30;64.90;;;;;;5014266;28;20482;-77
2023/04/15 10:20:52;;;;;;;23.55;17.98;;;14.10;64.70;;;;;;5022177;28;20052;-78
2023/04/15 10:23:19;;;;;;;21.40;17.88;;;14.10;65.80;;;;;;5028650;28;20104;-77
2023/04/15 10:25:54;;;;;;;22.02;16.92;;;14.30;66.10;;;;;;5014539;28;20391;-77
2023/04/15 10:28:23;;;;;;;22.63;16.73;;;14.40;65.40;;;;;;5023299;28;20045;-77
2023/04/15 10:30:50;;;;;;;21.83;15.68;;;14.30;65.20;;;;;;5022104;28;20033;-77
2023/04/15 10:33:21;;;;;;;22.23;16.88;;;14.40;64.70;;;;;;5028839;28;20029;-77
2023/04/15 10:35:50;;;;;;;21.73;16.65;;;14.50;64.20;;;;;;5018987;28;20382;-78
2023/04/15 10:38:39;;;;;;;31.67;21.40;;;14.80;64.00;;;;;;5022705;28;20049;-76
2023/04/15 10:41:15;;;;;;;26.60;18.55;;;15.20;62.90;;;;;;5020007;28;20992;-76
2023/04/15 10:43:49;;;;;;;25.42;17.30;;;15.30;62.10;;;;;;5026316;28;20022;-78
2023/04/15 10:46:39;;;;;;;20.85;14.60;;;15.30;60.20;;;;;;5017713;28;20030;-76
2023/04/15 10:49:15;;;;;;;20.70;15.73;;;15.30;62.80;;;;;;5015888;28;20037;-78
2023/04/15 10:51:43;;;;;;;17.48;12.80;;;15.60;62.20;;;;;;5022297;28;20034;-78
2023/04/15 10:54:31;;;;;;;18.38;12.82;;;15.60;60.10;;;;;;5029775;28;20041;-77
2023/04/15 10:57:00;;;;;;;17.67;13.35;;;15.60;61.90;;;;;;5033922;28;20037;-76
2023/04/15 10:59:34;;;;;;;19.70;14.02;;;15.60;60.40;;;;;;5025738;28;20034;-77
2023/04/15 11:02:05;;;;;;;18.45;13.73;;;15.60;59.40;;;;;;5028407;28;20039;-76
2023/04/15 11:04:57;;;;;;;18.45;12.50;;;15.30;59.90;;;;;;5023734;28;20486;-77
2023/04/15 11:07:38;;;;;;;17.02;11.30;;;15.40;60.80;;;;;;5021851;28;20033;-77
2023/04/15 11:10:24;;;;;;;15.05;11.00;;;15.80;60.10;;;;;;5028331;28;20070;-76
2023/04/15 11:12:56;;;;;;;15.45;11.57;;;16.00;59.10;;;;;;5020437;28;20041;-78
2023/04/15 11:15:31;;;;;;;15.77;11.10;;;15.90;60.50;;;;;;5024071;28;20128;-77
2023/04/15 11:18:07;;;;;;;16.35;10.73;;;16.00;59.10;;;;;;5029777;28;20136;-77
2023/04/15 11:20:33;;;;;;;14.13;10.68;;;16.00;59.90;;;;;;5028504;28;20373;-77
2023/04/15 11:22:59;;;;;;;13.45;10.02;;;16.10;61.40;;;;;;5021994;28;20033;-77
2023/04/15 11:25:26;;;;;;;12.40;9.13;;;16.30;58.70;;;;;;5027037;28;20047;-78
2023/04/15 11:27:53;;;;;;;12.68;8.73;;;16.60;57.60;;;;;;5022956;28;20177;-77
2023/04/15 11:30:21;;;;;;;12.43;8.27;;;16.70;53.70;;;;;;5023489;28;20370;-77
2023/04/15 11:32:59;;;;;;;11.50;7.20;;;16.60;50.80;;;;;;5022697;28;20037;-77
2023/04/15 11:35:24;;;;;;;11.82;7.22;;;16.50;50.70;;;;;;5024060;28;20022;-77
2023/04/15 11:37:50;;;;;;;11.43;7.30;;;16.40;50.20;;;;;;5022916;28;20037;-79
2023/04/15 11:40:21;;;;;;;10.23;7.10;;;16.40;50.50;;;;;;5021778;28;20025;-78
2023/04/15 11:43:05;;;;;;;10.80;6.63;;;16.50;50.90;;;;;;5023438;28;20048;-78
2023/04/15 11:45:31;;;;;;;7.80;4.72;;;16.60;48.20;;;;;;5024374;28;20451;-76
2023/04/15 11:48:08;;;;;;;9.75;5.38;;;16.20;44.00;;;;;;5026721;28;20501;-77
2023/04/15 11:50:35;;;;;;;10.35;5.15;;;16.00;45.80;;;;;;5020734;28;20037;-78
2023/04/15 11:53:03;;;;;;;9.25;5.38;;;16.30;45.70;;;;;;5021388;28;20480;-77
2023/04/15 11:55:30;;;;;;;9.55;5.35;;;16.40;46.70;;;;;;5015824;28;20525;-77
2023/04/15 11:58:10;;;;;;;7.57;4.40;;;16.30;44.10;;;;;;5014940;28;20114;-78
2023/04/15 12:00:38;;;;;;;8.38;4.90;;;16.20;42.40;;;;;;5021489;28;20041;-77
2023/04/15 12:03:24;;;;;;;8.20;4.88;;;16.30;43.60;;;;;;5018257;28;20037;-77
2023/04/15 12:06:23;;;;;;;9.15;4.50;;;16.50;42.20;;;;;;5013390;28;20034;-78
2023/04/15 12:08:51;;;;;;;9.30;6.25;;;16.50;41.50;;;;;;4991113;28;20088;-79
2023/04/15 12:11:46;;;;;;;9.57;6.55;;;16.30;40.90;;;;;;5020375;28;20779;-76
2023/04/15 12:14:23;;;;;;;9.35;5.85;;;16.20;42.50;;;;;;5020946;28;20084;-78
2023/04/15 12:16:56;;;;;;;9.65;6.53;;;16.30;45.30;;;;;;5015421;28;20033;-76
2023/04/15 12:19:31;;;;;;;8.43;6.20;;;16.70;48.40;;;;;;5020738;28;20030;-78
2023/04/15 12:22:14;;;;;;;9.50;6.10;;;16.80;45.20;;;;;;5017736;28;20033;-77
2023/04/15 12:24:43;;;;;;;11.48;6.70;;;16.70;43.50;;;;;;5019221;28;20088;-77
2023/04/15 12:27:12;;;;;;;10.80;5.40;;;16.60;42.60;;;;;;5018740;28;20030;-77
2023/04/15 12:29:40;;;;;;;8.70;5.90;;;16.40;41.10;;;;;;5021887;28;20065;-77
2023/04/15 12:32:07;;;;;;;10.00;5.90;;;16.30;40.40;;;;;;5020720;28;20448;-78
2023/04/15 12:34:35;;;;;;;8.10;5.00;;;16.20;42.70;;;;;;5022115;28;20143;-78
2023/04/15 12:37:03;;;;;;;10.30;4.95;;;16.30;40.60;;;;;;5024922;28;20034;-78